Time;durP1;ratioP1;P1;durP2;ratioP2;P2;SDS_P1;SDS_P2;PMS_P1;PMS_P2;Temp;Humidity;BMP_temperature;BMP_pressure;BME280_temperature;BME280_humidity;BME280_pressure;Samples;Min_cycle;Max_cycle;Signal;HPM_P1;HPM_P2
2021/10/15 00:01:12;;;;;;;65.70;37.23;;;;;;;2.03;82.58;95191.92;1686126;83;22739;-56
2021/10/15 00:03:39;;;;;;;77.87;41.77;;;;;;;1.95;82.69;95194.98;1689392;83;21488;-55
2021/10/15 00:06:06;;;;;;;69.20;39.15;;;;;;;1.92;82.81;95191.08;1702731;83;21008;-56
2021/10/15 00:08:33;;;;;;;73.60;39.25;;;;;;;1.89;82.86;95189.70;1702188;81;21027;-56
2021/10/15 00:11:00;;;;;;;65.60;38.33;;;;;;;1.86;83.07;95193.97;1694397;83;21137;-56
2021/10/15 00:13:27;;;;;;;65.95;35.88;;;;;;;1.88;83.07;95196.28;1697457;83;21250;-58
2021/10/15 00:15:54;;;;;;;65.30;36.50;;;;;;;1.88;83.09;95188.15;1701671;83;21182;-55
2021/10/15 00:18:21;;;;;;;63.98;37.58;;;;;;;1.87;83.29;95190.09;1701402;83;21578;-57
2021/10/15 00:20:47;;;;;;;65.97;35.58;;;;;;;1.92;83.55;95188.97;1684711;83;21010;-57
2021/10/15 00:23:14;;;;;;;72.92;39.05;;;;;;;1.98;83.52;95192.86;1696979;83;21031;-56
2021/10/15 00:25:41;;;;;;;78.83;44.10;;;;;;;1.96;82.98;95189.75;1682205;83;21835;-56
2021/10/15 00:28:08;;;;;;;78.92;41.90;;;;;;;1.89;82.84;95185.06;1695872;83;20995;-57
2021/10/15 00:30:35;;;;;;;76.07;39.63;;;;;;;1.81;82.71;95194.31;1697112;83;21045;-56
2021/10/15 00:33:03;;;;;;;57.88;32.78;;;;;;;1.68;82.64;95191.55;1690572;83;21523;-59
2021/10/15 00:35:30;;;;;;;55.80;34.58;;;;;;;1.56;82.74;95189.16;1688560;83;20993;-58
2021/10/15 00:37:57;;;;;;;59.50;35.75;;;;;;;1.48;82.96;95188.92;1687236;83;21134;-57
2021/10/15 00:40:24;;;;;;;56.63;35.03;;;;;;;1.51;83.41;95190.28;1696408;83;21017;-56
2021/10/15 00:42:51;;;;;;;54.15;31.00;;;;;;;1.63;83.56;95177.77;1706675;83;21032;-58
2021/10/15 00:45:18;;;;;;;49.80;34.58;;;;;;;1.73;83.20;95178.39;1716586;82;21423;-57
2021/10/15 00:47:46;;;;;;;72.03;42.00;;;;;;;1.78;82.89;95184.23;1719255;83;20961;-61
2021/10/15 00:50:14;;;;;;;80.20;46.60;;;;;;;1.82;82.59;95186.97;1711165;82;21158;-56
2021/10/15 00:52:41;;;;;;;74.50;44.90;;;;;;;1.79;82.50;95185.02;1715111;83;21066;-56
2021/10/15 00:55:08;;;;;;;67.37;40.98;;;;;;;1.78;82.33;95182.11;1693870;83;21498;-57
2021/10/15 00:57:37;;;;;;;76.12;44.10;;;;;;;1.76;82.29;95182.48;1719550;83;21041;-56
2021/10/15 01:00:07;;;;;;;74.00;41.58;;;;;;;1.75;82.30;95178.22;1720443;83;21553;-56
2021/10/15 01:02:36;;;;;;;67.50;39.92;;;;;;;1.78;82.33;95172.62;1722796;83;21158;-56
2021/10/15 01:05:04;;;;;;;64.10;37.25;;;;;;;1.84;82.30;95176.52;1710367;83;20952;-56
2021/10/15 01:07:32;;;;;;;79.87;44.65;;;;;;;1.89;82.48;95173.42;1702215;83;21040;-57
2021/10/15 01:09:59;;;;;;;78.17;41.53;;;;;;;1.89;82.27;95174.22;1697033;83;21047;-56
2021/10/15 01:12:26;;;;;;;74.85;39.40;;;;;;;1.87;82.06;95167.61;1701250;83;21456;-56
2021/10/15 01:14:52;;;;;;;91.78;45.48;;;;;;;1.80;81.89;95159.45;1686411;83;21122;-55
2021/10/15 01:17:19;;;;;;;90.72;48.92;;;;;;;1.73;81.93;95166.78;1700127;83;21468;-57
2021/10/15 01:19:54;;;;;;;78.17;42.25;;;;;;;1.65;81.86;95164.61;1701600;83;20970;-57
2021/10/15 01:22:29;;;;;;;83.52;45.28;;;;;;;1.63;82.05;95168.28;1709338;83;21088;-57
2021/10/15 01:24:57;;;;;;;82.80;45.25;;;;;;;1.62;81.84;95168.09;1702721;82;21078;-56
2021/10/15 01:27:24;;;;;;;80.90;46.92;;;;;;;1.61;81.82;95167.09;1719917;83;21168;-57
2021/10/15 01:29:51;;;;;;;69.62;43.33;;;;;;;1.59;81.75;95169.41;1702768;82;21567;-57
2021/10/15 01:32:18;;;;;;;75.12;41.37;;;;;;;1.58;81.66;95168.65;1695015;83;20981;-57
2021/10/15 01:34:46;;;;;;;77.32;43.40;;;;;;;1.53;81.57;95177.72;1698572;82;21594;-57
2021/10/15 01:37:13;;;;;;;72.45;41.08;;;;;;;1.51;81.70;95177.32;1721504;81;21063;-58
2021/10/15 01:39:41;;;;;;;80.17;43.02;;;;;;;1.48;81.79;95177.48;1701403;83;21115;-57
2021/10/15 01:42:53;;;;;;;80.07;45.12;;;;;;;1.49;82.08;95169.55;1694997;83;20973;-57
2021/10/15 01:44:36;;;;;;;80.97;45.28;;;;;;;1.55;82.37;95170.77;1704088;82;21015;-58
2021/10/15 01:47:03;;;;;;;80.28;45.78;;;;;;;1.64;82.25;95166.33;1702603;83;21088;-58
2021/10/15 01:49:31;;;;;;;79.20;45.38;;;;;;;1.69;82.46;95168.11;1720432;81;21361;-57
2021/10/15 01:51:58;;;;;;;74.27;43.38;;;;;;;1.73;82.33;95154.58;1697057;83;21155;-56
2021/10/15 01:54:24;;;;;;;79.75;45.12;;;;;;;1.70;81.97;95157.45;1686418;83;20969;-57
2021/10/15 01:56:53;;;;;;;76.53;42.62;;;;;;;1.61;81.81;95149.47;1690360;83;21025;-56
2021/10/15 01:59:20;;;;;;;71.15;43.08;;;;;;;1.59;81.90;95148.52;1690313;83;21615;-56
2021/10/15 02:01:47;;;;;;;82.80;47.25;;;;;;;1.57;81.83;95156.25;1699836;83;20961;-57
2021/10/15 02:04:13;;;;;;;76.35;44.93;;;;;;;1.57;81.83;95152.19;1688845;83;21318;-57
2021/10/15 02:06:40;;;;;;;62.15;37.88;;;;;;;1.57;81.71;95152.19;1681178;83;21062;-56
2021/10/15 02:09:09;;;;;;;63.13;37.95;;;;;;;1.54;81.53;95151.56;1703822;83;21975;-56
2021/10/15 02:11:36;;;;;;;64.70;38.95;;;;;;;1.58;81.47;95152.39;1696907;83;21018;-56
2021/10/15 02:14:03;;;;;;;70.45;39.08;;;;;;;1.59;81.34;95142.30;1717251;83;21027;-57
2021/10/15 02:16:31;;;;;;;55.73;33.28;;;;;;;1.61;81.24;95149.47;1712777;83;21107;-56
2021/10/15 02:18:58;;;;;;;51.45;32.63;;;;;;;1.62;81.35;95155.88;1706194;83;21415;-57
2021/10/15 02:21:25;;;;;;;44.33;27.48;;;;;;;1.60;81.33;95152.78;1697896;82;21207;-58
2021/10/15 02:23:52;;;;;;;59.40;34.43;;;;;;;1.60;81.25;95148.71;1698541;83;21535;-63
2021/10/15 02:26:20;;;;;;;57.83;34.58;;;;;;;1.58;81.30;95148.31;1701602;83;21005;-57
2021/10/15 02:28:48;;;;;;;50.50;30.62;;;;;;;1.60;81.28;95150.63;1703423;83;21212;-57
2021/10/15 02:31:15;;;;;;;63.38;36.25;;;;;;;1.61;81.43;95154.89;1687281;83;21112;-57
2021/10/15 02:33:41;;;;;;;54.60;32.30;;;;;;;1.64;81.73;95149.50;1689452;83;21102;-57
2021/10/15 02:36:08;;;;;;;60.45;32.70;;;;;;;1.71;81.77;95145.45;1664037;84;21065;-59
2021/10/15 02:38:37;;;;;;;52.70;32.23;;;;;;;1.73;81.84;95158.05;1691657;83;21022;-58
2021/10/15 02:41:04;;;;;;;50.08;30.75;;;;;;;1.74;81.91;95159.03;1711045;83;21068;-57
2021/10/15 02:43:31;;;;;;;47.15;29.10;;;;;;;1.84;81.95;95157.53;1697747;83;21079;-58
2021/10/15 02:45:57;;;;;;;48.42;29.02;;;;;;;1.82;81.90;95159.28;1697908;83;21068;-56
2021/10/15 02:48:24;;;;;;;51.50;30.60;;;;;;;1.81;82.01;95157.70;1700143;83;21271;-58
2021/10/15 02:50:51;;;;;;;48.40;29.05;;;;;;;1.81;82.03;95161.00;1697074;83;21582;-57
2021/10/15 02:53:18;;;;;;;43.70;30.08;;;;;;;1.80;82.35;95159.45;1697783;83;21110;-57
2021/10/15 02:55:46;;;;;;;39.42;27.62;;;;;;;1.84;82.27;95148.03;1699376;83;20960;-58
2021/10/15 02:58:13;;;;;;;43.40;27.87;;;;;;;1.83;82.20;95149.19;1710345;83;21119;-58
2021/10/15 03:00:39;;;;;;;47.53;28.35;;;;;;;1.81;82.26;95152.87;1704673;84;21009;-58
2021/10/15 03:03:06;;;;;;;48.60;26.40;;;;;;;1.74;82.23;95150.14;1707931;82;21016;-56
2021/10/15 03:05:33;;;;;;;35.85;24.67;;;;;;;1.63;82.24;95156.08;1690528;84;21157;-57
2021/10/15 03:08:00;;;;;;;41.50;26.90;;;;;;;1.55;82.52;95158.57;1700322;83;21098;-57
2021/10/15 03:10:28;;;;;;;45.03;26.55;;;;;;;1.53;82.87;95156.79;1698714;83;21021;-58
2021/10/15 03:12:55;;;;;;;38.90;24.18;;;;;;;1.54;83.05;95158.34;1698274;83;21036;-58
2021/10/15 03:15:22;;;;;;;29.35;21.45;;;;;;;1.53;83.14;95159.50;1702119;83;21496;-56
2021/10/15 03:17:49;;;;;;;39.80;26.33;;;;;;;1.48;83.16;95158.52;1710023;83;21073;-56
2021/10/15 03:20:15;;;;;;;39.23;25.20;;;;;;;1.40;83.33;95158.29;1701168;83;20979;-56
2021/10/15 03:22:45;;;;;;;55.60;30.37;;;;;;;1.40;83.69;95165.06;1711369;83;21151;-57
2021/10/15 03:25:12;;;;;;;62.90;33.80;;;;;;;1.41;83.75;95159.05;1677100;83;21105;-57
2021/10/15 03:27:38;;;;;;;82.05;41.92;;;;;;;1.37;83.73;95165.03;1675879;83;21018;-57
2021/10/15 03:30:06;;;;;;;77.75;38.10;;;;;;;1.37;84.01;95165.03;1686513;83;21177;-57
2021/10/15 03:32:33;;;;;;;81.50;40.52;;;;;;;1.38;84.17;95148.41;1688685;83;21064;-56
2021/10/15 03:34:59;;;;;;;67.22;35.52;;;;;;;1.38;84.17;95140.27;1701611;83;21000;-56
2021/10/15 03:37:26;;;;;;;48.15;30.55;;;;;;;1.39;84.25;95147.25;1703703;83;20988;-56
2021/10/15 03:39:52;;;;;;;38.80;26.40;;;;;;;1.39;84.14;95144.54;1683180;83;20956;-58
2021/10/15 03:42:19;;;;;;;46.42;29.20;;;;;;;1.39;84.25;95152.67;1683738;83;21925;-57
2021/10/15 03:44:46;;;;;;;42.75;27.62;;;;;;;1.38;84.12;95147.05;1706270;84;20957;-57
2021/10/15 03:47:13;;;;;;;47.70;29.23;;;;;;;1.40;84.11;95152.08;1706204;83;21001;-56
2021/10/15 03:49:40;;;;;;;45.25;27.20;;;;;;;1.38;83.92;95145.70;1691441;82;20974;-56
2021/10/15 03:52:07;;;;;;;44.93;28.15;;;;;;;1.36;83.87;95144.51;1696195;83;20981;-56
2021/10/15 03:54:34;;;;;;;42.08;27.65;;;;;;;1.37;83.68;95146.06;1700055;83;21155;-57
2021/10/15 03:57:03;;;;;;;52.13;34.35;;;;;;;1.34;83.77;95144.88;1712632;82;21020;-58
2021/10/15 03:59:31;;;;;;;43.42;28.62;;;;;;;1.36;83.90;95143.91;1692574;82;21081;-57
2021/10/15 04:01:57;;;;;;;45.83;27.37;;;;;;;1.45;84.06;95140.30;1694382;83;21436;-57
2021/10/15 04:04:24;;;;;;;50.60;30.02;;;;;;;1.46;83.77;95148.63;1691895;83;21009;-63
2021/10/15 04:06:51;;;;;;;39.58;25.70;;;;;;;1.48;83.77;95153.09;1688187;83;21125;-57
2021/10/15 04:09:17;;;;;;;43.10;27.13;;;;;;;1.54;83.89;95156.23;1704197;83;21572;-58
2021/10/15 04:11:44;;;;;;;35.80;24.40;;;;;;;1.55;83.52;95152.36;1704640;83;20990;-57
2021/10/15 04:14:10;;;;;;;41.48;28.17;;;;;;;1.56;83.47;95157.41;1696486;83;20981;-58
2021/10/15 04:16:37;;;;;;;42.45;26.95;;;;;;;1.56;83.02;95151.20;1687178;83;21534;-58
2021/10/15 04:19:05;;;;;;;45.83;28.62;;;;;;;1.52;82.91;95158.55;1709597;83;21000;-58
2021/10/15 04:21:32;;;;;;;44.90;29.20;;;;;;;1.46;82.98;95154.62;1716454;83;21059;-56
2021/10/15 04:23:59;;;;;;;56.20;31.60;;;;;;;1.49;83.13;95154.64;1693196;83;21107;-57
2021/10/15 04:26:26;;;;;;;53.13;32.10;;;;;;;1.53;83.04;95147.30;1703016;83;20965;-57
2021/10/15 04:28:53;;;;;;;88.67;47.55;;;;;;;1.56;83.01;95147.92;1697306;83;21004;-58
2021/10/15 04:31:20;;;;;;;50.23;28.85;;;;;;;1.61;83.09;95156.25;1697002;83;21963;-58
2021/10/15 04:33:46;;;;;;;39.70;26.27;;;;;;;1.65;83.03;95159.78;1693577;83;21469;-56
2021/10/15 04:36:13;;;;;;;48.20;30.30;;;;;;;1.63;82.80;95159.36;1712205;83;21583;-57
2021/10/15 04:38:39;;;;;;;51.28;32.45;;;;;;;1.57;82.57;95158.97;1708643;83;21444;-57
2021/10/15 04:41:06;;;;;;;77.87;44.73;;;;;;;1.52;82.49;95154.47;1701823;83;20987;-57
2021/10/15 04:43:32;;;;;;;57.38;35.43;;;;;;;1.52;82.68;95155.83;1689682;83;21774;-57
2021/10/15 04:45:59;;;;;;;41.48;28.38;;;;;;;1.49;82.35;95156.00;1686100;83;20968;-58
2021/10/15 04:48:25;;;;;;;41.92;28.73;;;;;;;1.44;82.39;95159.08;1684106;82;21007;-57
2021/10/15 04:50:52;;;;;;;47.25;31.70;;;;;;;1.41;82.15;95154.42;1691367;82;21137;-58
2021/10/15 04:53:19;;;;;;;49.60;32.40;;;;;;;1.39;82.37;95162.16;1700328;83;21096;-59
2021/10/15 04:55:46;;;;;;;53.02;36.38;;;;;;;1.43;82.33;95162.95;1694574;83;21799;-57
2021/10/15 04:58:12;;;;;;;66.65;41.88;;;;;;;1.44;82.24;95162.35;1700888;83;21468;-59
2021/10/15 05:00:39;;;;;;;44.80;31.37;;;;;;;1.46;82.50;95149.98;1689787;83;21897;-58
2021/10/15 05:03:06;;;;;;;44.18;28.02;;;;;;;1.52;82.72;95159.30;1675981;83;20986;-60
2021/10/15 05:05:34;;;;;;;38.60;26.57;;;;;;;1.63;82.91;95149.87;1702307;83;21016;-58
2021/10/15 05:08:04;;;;;;;40.38;25.50;;;;;;;1.71;82.93;95152.23;1689966;82;21858;-58
2021/10/15 05:10:30;;;;;;;31.48;21.65;;;;;;;1.82;82.97;95154.42;1688522;83;21114;-59
2021/10/15 05:12:57;;;;;;;63.48;43.15;;;;;;;1.85;82.75;95158.52;1703108;83;21598;-59
2021/10/15 05:15:23;;;;;;;53.52;36.00;;;;;;;1.87;82.73;95159.47;1707270;83;21495;-57
2021/10/15 05:17:52;;;;;;;69.58;40.88;;;;;;;1.88;82.45;95161.02;1702171;83;21186;-58
2021/10/15 05:20:20;;;;;;;64.58;42.03;;;;;;;1.75;81.91;95148.39;1705138;83;21167;-57
2021/10/15 05:22:47;;;;;;;87.53;47.20;;;;;;;1.68;81.92;95158.42;1704226;83;20983;-57
2021/10/15 05:25:13;;;;;;;98.90;54.73;;;;;;;1.67;81.66;95154.16;1692406;83;21042;-58
2021/10/15 05:27:41;;;;;;;109.52;58.13;;;;;;;1.65;81.40;95155.13;1691681;83;21056;-60
2021/10/15 05:30:09;;;;;;;119.42;65.67;;;;;;;1.61;81.06;95148.91;1689513;83;21550;-59
2021/10/15 05:32:36;;;;;;;114.80;63.98;;;;;;;1.56;80.80;95149.84;1701161;83;21200;-59
2021/10/15 05:35:04;;;;;;;97.72;57.15;;;;;;;1.52;80.82;95153.88;1708027;83;21025;-58
2021/10/15 05:37:30;;;;;;;98.45;54.50;;;;;;;1.55;81.25;95150.44;1700896;82;20984;-58
2021/10/15 05:39:57;;;;;;;75.83;43.75;;;;;;;1.64;81.01;95161.70;1701478;82;21128;-59
2021/10/15 05:42:24;;;;;;;73.42;43.85;;;;;;;1.70;80.96;95152.03;1694631;83;21043;-59
2021/10/15 05:44:51;;;;;;;96.37;50.52;;;;;;;1.71;80.78;95152.23;1708993;83;20938;-60
2021/10/15 05:47:17;;;;;;;75.78;42.58;;;;;;;1.67;80.75;95158.81;1705009;83;21448;-60
2021/10/15 05:49:46;;;;;;;61.88;39.88;;;;;;;1.69;81.17;95155.14;1695126;83;21193;-59
2021/10/15 05:52:16;;;;;;;69.15;39.42;;;;;;;1.73;81.17;95149.91;1704026;83;21001;-59
2021/10/15 05:57:34;;;;;;;74.30;41.92;;;;;;;1.81;81.45;95142.78;1709989;83;21165;-59
2021/10/15 05:59:46;;;;;;;69.53;38.25;;;;;;;1.87;81.46;95138.56;1697215;83;20963;-60
2021/10/15 06:02:12;;;;;;;50.85;32.13;;;;;;;1.98;81.63;95144.02;1695024;83;21067;-59
2021/10/15 06:15:35;;;;;;;91.53;46.63;;;;;;;2.34;80.82;95134.22;1703881;83;21008;-59
2021/10/15 06:18:11;;;;;;;81.12;45.15;;;;;;;2.29;80.66;95127.06;1691976;83;21457;-62
2021/10/15 06:20:31;;;;;;;76.02;46.18;;;;;;;2.26;80.59;95129.16;1701945;83;21063;-61
2021/10/15 06:22:58;;;;;;;76.05;41.45;;;;;;;2.26;80.53;95123.73;1688352;83;21156;-59
2021/10/15 06:25:26;;;;;;;65.90;36.77;;;;;;;2.33;80.64;95123.77;1680893;83;20982;-60
2021/10/15 06:27:58;;;;;;;45.10;28.85;;;;;;;2.47;80.81;95126.51;1696256;83;21577;-60
2021/10/15 06:30:22;;;;;;;52.88;30.35;;;;;;;2.60;80.51;95123.59;1703384;83;20984;-60
2021/10/15 06:32:49;;;;;;;40.03;24.87;;;;;;;2.64;80.24;95121.64;1697002;83;20970;-61
2021/10/15 06:35:16;;;;;;;25.00;17.48;;;;;;;2.67;80.24;95114.11;1700523;83;21787;-60
2021/10/15 06:37:42;;;;;;;20.25;14.98;;;;;;;2.67;79.87;95116.23;1703279;83;20979;-60
2021/10/15 06:40:11;;;;;;;24.70;17.40;;;;;;;2.69;79.71;95124.00;1680896;83;21156;-59
2021/10/15 06:42:38;;;;;;;20.23;16.77;;;;;;;2.73;79.86;95116.63;1711302;83;21031;-61
2021/10/15 06:45:06;;;;;;;18.23;16.10;;;;;;;2.80;79.83;95124.19;1711147;83;21185;-59
2021/10/15 06:47:35;;;;;;;19.75;16.07;;;;;;;2.87;79.84;95124.18;1705627;83;21028;-62
2021/10/15 06:50:02;;;;;;;13.98;12.47;;;;;;;3.05;79.95;95121.47;1711532;83;21024;-59
2021/10/15 06:52:36;;;;;;;12.55;11.28;;;;;;;3.30;79.61;95118.12;1713202;83;20972;-59
2021/10/15 06:54:58;;;;;;;12.98;11.68;;;;;;;3.49;79.00;95117.11;1707459;83;20973;-61
2021/10/15 06:57:25;;;;;;;13.32;11.93;;;;;;;3.57;78.51;95117.27;1691000;83;21036;-59
2021/10/15 06:59:51;;;;;;;17.65;12.58;;;;;;;3.68;78.23;95110.63;1706673;83;21143;-60
2021/10/15 07:02:18;;;;;;;15.45;12.23;;;;;;;3.83;77.87;95110.01;1700631;83;21013;-59
2021/10/15 07:04:45;;;;;;;19.77;13.25;;;;;;;3.94;77.39;95107.43;1702502;83;21016;-64
2021/10/15 07:07:12;;;;;;;18.67;12.75;;;;;;;4.03;76.93;95107.00;1694556;83;21675;-60
2021/10/15 07:09:39;;;;;;;19.67;13.38;;;;;;;4.00;76.55;95105.83;1696795;83;20976;-62
2021/10/15 07:12:07;;;;;;;18.73;12.37;;;;;;;4.00;76.76;95103.69;1684326;83;20981;-60
2021/10/15 07:14:34;;;;;;;18.32;12.78;;;;;;;4.05;76.62;95096.48;1693290;83;21561;-60
2021/10/15 07:17:01;;;;;;;15.72;12.70;;;;;;;4.11;76.55;95095.68;1704958;83;21095;-64
2021/10/15 07:19:28;;;;;;;16.82;12.58;;;;;;;4.17;76.57;95098.73;1707757;83;21121;-61
2021/10/15 07:21:54;;;;;;;17.27;12.58;;;;;;;4.22;76.53;95084.73;1705057;82;21229;-60
2021/10/15 07:24:21;;;;;;;15.85;13.32;;;;;;;4.32;76.25;95083.88;1691394;83;21156;-62
2021/10/15 07:26:48;;;;;;;14.93;12.47;;;;;;;4.38;76.00;95087.14;1689683;83;20972;-61
2021/10/15 07:29:15;;;;;;;13.55;11.12;;;;;;;4.38;75.84;95083.66;1706018;83;20980;-61
2021/10/15 07:31:41;;;;;;;17.52;13.13;;;;;;;4.38;75.76;95076.84;1682949;83;21022;-60
2021/10/15 07:34:08;;;;;;;19.75;13.72;;;;;;;4.40;75.71;95073.14;1704641;83;21496;-61
2021/10/15 07:36:37;;;;;;;19.12;15.15;;;;;;;4.47;75.71;95064.91;1695533;83;21163;-60
2021/10/15 07:39:03;;;;;;;21.37;15.80;;;;;;;4.58;75.56;95065.01;1698070;83;21502;-59
2021/10/15 07:41:33;;;;;;;18.92;14.63;;;;;;;4.67;75.18;95072.16;1697318;83;21033;-59
2021/10/15 07:43:59;;;;;;;18.52;13.30;;;;;;;4.74;75.03;95060.39;1682087;83;21455;-61
2021/10/15 07:46:26;;;;;;;14.93;12.95;;;;;;;4.82;74.79;95065.39;1692187;83;21113;-67
2021/10/15 07:48:52;;;;;;;23.85;14.93;;;;;;;4.88;74.55;95067.09;1702100;83;21916;-61
2021/10/15 07:51:19;;;;;;;24.15;16.55;;;;;;;4.93;74.40;95061.99;1700806;83;21209;-60
2021/10/15 07:53:47;;;;;;;19.35;15.75;;;;;;;5.01;74.19;95067.55;1698592;83;21072;-59
2021/10/15 07:56:14;;;;;;;21.23;16.27;;;;;;;5.06;74.02;95059.53;1710626;83;21555;-60
2021/10/15 07:58:42;;;;;;;25.92;17.12;;;;;;;5.13;73.81;95053.42;1715638;83;21504;-60
2021/10/15 08:01:09;;;;;;;21.02;14.63;;;;;;;5.23;73.79;95046.50;1696122;83;22257;-60
2021/10/15 08:03:36;;;;;;;20.45;15.88;;;;;;;5.39;73.51;95043.23;1688220;83;21034;-60
2021/10/15 08:06:02;;;;;;;34.83;16.80;;;;;;;5.53;73.08;95043.84;1700157;83;21080;-60
2021/10/15 08:08:29;;;;;;;23.02;14.75;;;;;;;5.70;72.72;95037.98;1713229;81;20985;-60
2021/10/15 08:10:56;;;;;;;35.17;15.00;;;;;;;5.87;72.21;95034.28;1716797;82;21014;-60
2021/10/15 08:13:23;;;;;;;25.20;14.05;;;;;;;6.00;71.81;95039.39;1728244;82;21136;-60
2021/10/15 08:15:50;;;;;;;15.38;12.45;;;;;;;6.11;71.44;95031.23;1741520;81;21050;-58
2021/10/15 08:18:17;;;;;;;16.87;12.10;;;;;;;6.23;70.67;95025.21;1728383;82;21021;-58
2021/10/15 08:20:44;;;;;;;20.90;13.98;;;;;;;6.30;69.89;95017.52;1724041;81;21345;-62
2021/10/15 08:23:11;;;;;;;15.93;13.10;;;;;;;6.38;69.90;95015.63;1726995;82;21489;-61
2021/10/15 08:25:39;;;;;;;22.20;15.28;;;;;;;6.45;69.49;95006.52;1733657;82;21804;-60
2021/10/15 08:28:07;;;;;;;24.35;15.75;;;;;;;6.52;69.51;95007.80;1725060;82;21073;-60
2021/10/15 08:30:34;;;;;;;27.27;15.60;;;;;;;6.66;69.42;95008.94;1701664;82;21115;-61
2021/10/15 08:33:01;;;;;;;26.33;14.73;;;;;;;6.81;69.12;95008.86;1709419;83;21790;-60
2021/10/15 08:35:30;;;;;;;20.65;12.93;;;;;;;6.96;68.87;95004.12;1730804;82;21040;-60
2021/10/15 08:37:57;;;;;;;17.92;12.50;;;;;;;7.12;68.45;94999.52;1733882;82;21124;-60
2021/10/15 08:40:24;;;;;;;21.90;15.60;;;;;;;7.27;68.02;95001.38;1730860;82;21503;-60
2021/10/15 08:42:52;;;;;;;19.73;13.95;;;;;;;7.39;67.55;95008.40;1724521;82;21019;-61
2021/10/15 08:45:29;;;;;;;29.52;13.55;;;;;;;7.54;67.01;95000.06;1695084;83;20960;-60
2021/10/15 08:47:57;;;;;;;17.65;12.73;;;;;;;7.69;66.66;94992.36;1731121;82;21585;-60
2021/10/15 08:50:24;;;;;;;28.73;16.27;;;;;;;7.86;66.09;94993.95;1720880;82;21165;-65
2021/10/15 08:52:51;;;;;;;20.25;14.50;;;;;;;8.05;65.71;94987.06;1723344;81;20959;-59
2021/10/15 08:55:19;;;;;;;21.07;13.38;;;;;;;8.23;65.58;94984.73;1729029;82;20970;-61
2021/10/15 08:57:54;;;;;;;18.45;14.25;;;;;;;8.43;65.11;94973.10;1740592;81;21081;-59
2021/10/15 09:00:33;;;;;;;19.10;13.85;;;;;;;8.61;64.23;94977.56;1732822;81;21031;-60
2021/10/15 09:03:20;;;;;;;21.37;13.98;;;;;;;8.84;63.35;94977.38;1727131;82;22149;-60
2021/10/15 09:06:04;;;;;;;24.10;13.48;;;;;;;9.07;63.09;94974.45;1729277;82;20962;-63
2021/10/15 09:08:53;;;;;;;17.60;13.05;;;;;;;9.26;62.12;94969.44;1708844;82;21073;-61
2021/10/15 09:11:34;;;;;;;36.42;15.55;;;;;;;9.41;60.87;94965.11;1695081;83;21094;-61
2021/10/15 09:14:15;;;;;;;14.35;12.13;;;;;;;9.59;60.78;94960.65;1697588;82;21086;-61
2021/10/15 09:17:17;;;;;;;16.80;12.65;;;;;;;9.84;60.26;94962.70;1695486;83;21174;-64
2021/10/15 09:19:51;;;;;;;16.35;12.05;;;;;;;10.04;58.93;94959.19;1685909;83;21141;-60
2021/10/15 09:22:26;;;;;;;19.65;14.15;;;;;;;10.19;58.02;94947.92;1695944;83;20975;-61
2021/10/15 09:25:11;;;;;;;17.62;11.30;;;;;;;10.36;57.72;94943.86;1721191;82;21065;-60
2021/10/15 09:27:43;;;;;;;14.68;11.38;;;;;;;10.57;56.47;94937.68;1701050;83;20996;-61
2021/10/15 09:30:22;;;;;;;11.83;9.58;;;;;;;10.84;55.25;94933.98;1680702;83;21162;-61
2021/10/15 09:32:57;;;;;;;19.40;9.80;;;;;;;11.15;54.46;94923.13;1698940;82;21419;-61
2021/10/15 09:35:31;;;;;;;13.10;8.95;;;;;;;11.49;53.18;94921.09;1693849;83;21070;-60
2021/10/15 09:38:01;;;;;;;10.03;7.90;;;;;;;12.00;52.08;94918.24;1708004;82;21011;-61
2021/10/15 09:40:34;;;;;;;13.43;8.73;;;;;;;12.53;51.43;94916.94;1698130;83;21034;-61
2021/10/15 09:43:06;;;;;;;14.20;8.65;;;;;;;13.08;49.52;94924.15;1695207;83;21129;-61
2021/10/15 09:45:52;;;;;;;10.75;7.97;;;;;;;13.56;48.24;94919.08;1689103;83;21818;-60
2021/10/15 09:48:35;;;;;;;10.88;8.65;;;;;;;14.19;46.84;94917.63;1710594;82;21025;-65
2021/10/15 09:51:15;;;;;;;18.00;9.35;;;;;;;14.92;45.25;94910.68;1717950;82;21046;-66
2021/10/15 09:54:04;;;;;;;12.00;9.23;;;;;;;15.46;44.13;94906.78;1718414;82;21588;-64
2021/10/15 09:56:53;;;;;;;17.27;9.68;;;;;;;15.91;43.27;94902.98;1730844;82;21111;-62
2021/10/15 09:59:19;;;;;;;26.35;13.48;;;;;;;16.32;42.19;94902.70;1727777;82;21058;-60
2021/10/15 10:01:46;;;;;;;13.25;10.85;;;;;;;17.00;40.95;94899.08;1737392;81;21478;-62
2021/10/15 10:04:14;;;;;;;13.72;11.08;;;;;;;17.56;39.13;94898.56;1743287;80;21002;-62
2021/10/15 10:06:42;;;;;;;13.22;10.80;;;;;;;17.93;38.07;94890.52;1739108;81;20958;-61
2021/10/15 10:09:09;;;;;;;10.32;9.13;;;;;;;18.27;36.52;94887.58;1737731;81;21076;-62
2021/10/15 10:11:37;;;;;;;12.60;8.83;;;;;;;18.61;36.20;94879.63;1732219;81;20998;-61
2021/10/15 10:14:05;;;;;;;12.33;9.43;;;;;;;19.13;35.11;94871.22;1727775;82;21025;-62
2021/10/15 10:16:34;;;;;;;13.55;8.78;;;;;;;19.59;34.39;94856.98;1714961;81;21461;-61
2021/10/15 10:19:02;;;;;;;18.42;7.90;;;;;;;20.13;34.49;94857.77;1724832;81;20962;-61
2021/10/15 10:21:33;;;;;;;17.37;9.18;;;;;;;20.61;32.83;94855.50;1732616;81;22306;-62
2021/10/15 10:24:12;;;;;;;9.05;7.40;;;;;;;20.99;31.60;94854.09;1730989;82;21459;-61
2021/10/15 10:26:52;;;;;;;10.48;7.08;;;;;;;21.50;31.17;94849.20;1718983;82;21069;-68
2021/10/15 10:29:19;;;;;;;10.05;6.08;;;;;;;22.06;30.18;94843.45;1727146;81;21451;-61
2021/10/15 10:31:46;;;;;;;11.20;6.50;;;;;;;22.55;28.21;94843.15;1720282;82;20985;-61
2021/10/15 10:34:16;;;;;;;9.33;6.67;;;;;;;22.64;28.08;94841.40;1709600;81;21157;-61
2021/10/15 10:36:42;;;;;;;10.72;7.62;;;;;;;22.85;28.18;94843.14;1726576;81;20950;-60
2021/10/15 10:39:24;;;;;;;10.78;7.35;;;;;;;23.07;27.01;94836.67;1733379;82;20963;-62
2021/10/15 10:42:14;;;;;;;11.53;7.65;;;;;;;23.27;27.13;94829.84;1717962;81;21105;-62
2021/10/15 10:44:59;;;;;;;20.17;8.78;;;;;;;23.59;26.99;94824.45;1709432;82;21134;-63
2021/10/15 10:47:27;;;;;;;9.63;6.45;;;;;;;23.74;26.22;94826.19;1713156;82;21827;-62
2021/10/15 10:50:12;;;;;;;13.60;7.53;;;;;;;23.93;25.54;94822.02;1725396;81;21157;-60
2021/10/15 10:52:52;;;;;;;16.97;8.88;;;;;;;23.79;25.31;94812.70;1727843;82;20983;-58
2021/10/15 10:55:43;;;;;;;17.10;8.10;;;;;;;23.59;25.62;94812.47;1726016;82;21025;-60
2021/10/15 10:58:35;;;;;;;29.12;8.83;;;;;;;23.63;25.50;94807.31;1727181;82;20955;-61
2021/10/15 11:01:24;;;;;;;13.20;8.85;;;;;;;23.77;25.67;94792.80;1726310;82;21172;-61
2021/10/15 11:03:50;;;;;;;8.60;6.97;;;;;;;24.06;25.35;94796.88;1726593;82;21026;-61
2021/10/15 11:06:17;;;;;;;13.40;8.78;;;;;;;24.37;25.37;94792.59;1734719;82;21446;-61
2021/10/15 11:08:46;;;;;;;10.10;7.55;;;;;;;24.52;24.87;94792.22;1727811;82;21628;-60
2021/10/15 11:11:33;;;;;;;14.23;7.30;;;;;;;24.73;24.90;94783.28;1723970;82;21639;-60
2021/10/15 11:13:55;;;;;;;11.28;7.55;;;;;;;25.03;24.70;94771.73;1722239;82;21803;-62
2021/10/15 11:16:25;;;;;;;10.30;7.72;;;;;;;25.35;24.36;94773.83;1725060;82;21099;-61
2021/10/15 11:18:54;;;;;;;8.48;5.95;;;;;;;25.67;24.42;94767.40;1736770;81;21014;-62
2021/10/15 11:21:22;;;;;;;8.05;5.25;;;;;;;26.01;23.71;94764.72;1717169;81;21112;-60
2021/10/15 11:23:55;;;;;;;7.67;5.90;;;;;;;26.19;23.24;94762.38;1732913;82;21078;-61
2021/10/15 11:26:33;;;;;;;8.80;6.12;;;;;;;26.27;22.88;94758.33;1698620;81;21458;-61
2021/10/15 11:29:00;;;;;;;20.57;10.28;;;;;;;26.38;22.84;94753.84;1737216;81;21489;-60
2021/10/15 11:31:28;;;;;;;10.60;6.62;;;;;;;26.45;23.16;94750.31;1725322;82;21582;-61
2021/10/15 11:34:13;;;;;;;11.05;6.92;;;;;;;26.65;22.96;94748.16;1729580;82;21458;-60
2021/10/15 11:36:41;;;;;;;10.25;7.08;;;;;;;26.81;22.57;94744.16;1725775;82;21002;-61
2021/10/15 11:39:07;;;;;;;15.00;9.75;;;;;;;26.97;22.24;94739.36;1723622;81;21140;-61
2021/10/15 11:41:49;;;;;;;11.43;8.48;;;;;;;27.13;22.85;94744.61;1725399;82;21471;-60
2021/10/15 11:44:34;;;;;;;10.38;7.35;;;;;;;27.48;22.91;94743.87;1734495;81;21528;-60
2021/10/15 11:47:01;;;;;;;20.30;7.70;;;;;;;27.76;22.13;94735.34;1729503;82;21168;-59